Greeneville Municipal (3B1)
Greeneville, ME
Field Elevation: 1401
Lat: 45°27.80N  Long: 69°33.10W
CTAF/Unicom Freq: 122.8000
   
     For Weather-by-Phone, call (207) 695-2581
Weather Advisories
2021-09-21   17:41 Z
Altimeter 30.39" Hg
Wind 210° @ 12 KT
Gusts 18 KT
Visibility 10 SM
Ceiling CLR
Temperature 18° C (64° F)
Dewpoint 8° C (46° F)
Relative Humidity 52%
Density Altitude --
Condensation Altitude 6,400 feet
Wind and Runways
Indicated Runway = 21
Headwind = 12 kt
Crosswind = 0 kt
History
 
 
 
More Info
NOAA Forecast
 
 
About Us
Belfort Instrument
 
 
FAA Disclaimer: The data displayed is for advisory purposes only and is not to be used for flight planning or operations. For official data, please call (207) 695-2581 to hear the current automated AWOS voice message.
  METAR 3B1 211741Z AUTO 21012G18KT 10 SM CLR 18/08 A3039